Flight Track Log - Related Links

Times and Time Zones

All times are in EDT time to prevent confusion due to time zone crossing. See the PDT4314 flight status page for this flight to view local times or setup timezone preferences in your user account.

Time Position Orientation Groundspeed Altitude Reporting Facility
EDT Latitude Longitude Course Direction KTS MPH feet Rate Location/Type
Thu 04:20:52 PM 39.9000 -75.2333 290° West 123 142 600  Level Philadelphia TRACON
Thu 04:21:58 PM 39.9167 -75.2833 294° West 138 159 2,300 1,273 Climbing Philadelphia TRACON
Thu 04:23:00 PM 40.0801 -75.3045 323° Northwest  Level Estimated
Thu 04:23:04 PM 39.9500 -75.3333 311° West 159 183 3,400  Level Philadelphia TRACON
Thu 04:24:00 PM 40.1494 -75.3258 311° West  Level Estimated
Thu 04:24:04 PM 39.9667 -75.3667 303° West 128 147 4,600  Level Philadelphia TRACON
Thu 04:24:58 PM 39.9667 -75.4167 270° West 130 150 5,500 1,050 Climbing Philadelphia TRACON
Thu 04:25:00 PM 40.2187 -75.3471 311° West  Level Estimated
Thu 04:26:00 PM 40.2431 -75.4346 290° West  Level FlightAware Approximate
Thu 04:26:04 PM 39.9667 -75.4667 270° West 139 160 6,700  Level Philadelphia TRACON
Thu 04:27:04 PM 39.9833 -75.5167 294° West 196 226 7,600 1,000 Climbing Philadelphia TRACON
Thu 04:27:58 PM 40.0283 -75.5231 354° North 196 226 8,600 947 Climbing New York Center
Thu 04:28:58 PM 40.0761 -75.5264 357° North 196 226 9,400 850 Climbing New York Center
Thu 04:29:58 PM 40.1342 -75.5331 355° North 205 236 10,300 850 Climbing New York Center
Thu 04:30:58 PM 40.1897 -75.5503 347° North 205 236 11,100 800 Climbing New York Center
Thu 04:31:58 PM 40.2431 -75.5731 342° North 200 230 11,900 450 Climbing New York Center
Thu 04:32:58 PM 40.3028 -75.5908 347° North 209 241 12,000 50 Climbing New York Center
Thu 04:33:58 PM 40.3667 -75.6089 348° North 228 262 12,000  Level New York Center
Thu 04:34:58 PM 40.4264 -75.6267 347° North 239 275 12,000  Level New York Center
Thu 04:35:58 PM 40.4919 -75.6533 343° North 239 275 12,000  Level New York Center
Thu 04:36:58 PM 40.5681 -75.6722 349° North 244 281 12,000  Level New York Center
Thu 04:37:58 PM 40.6364 -75.6881 350° North 244 281 12,000  Level New York Center
Thu 04:38:58 PM 40.7064 -75.7042 350° North 249 287 12,000  Level New York Center
Thu 04:39:58 PM 40.7725 -75.7197 350° North 249 287 12,000  Level New York Center
Thu 04:40:58 PM 40.8367 -75.7300 353° North 255 293 12,000  Level New York Center
Thu 04:41:58 PM 40.9153 -75.7411 354° North 255 293 12,000  Level New York Center
Thu 04:42:58 PM 40.9833 -75.7572 350° North 255 293 12,000  Level New York Center
Thu 04:43:58 PM 41.0536 -75.7706 352° North 255 293 12,000 -500 Level New York Center
Thu 04:44:58 PM 41.1261 -75.7814 354° North 255 293 11,000 -950 Descending New York Center
Thu 04:45:58 PM 41.2025 -75.8008 349° North 268 308 10,100 -500 Descending New York Center
Thu 04:46:58 PM 41.2769 -75.8092 355° North 274 315 10,000 -50 Descending New York Center
Thu 04:47:58 PM 41.3492 -75.8256 350° North 269 310 10,000 -100 Level New York Center
Thu 04:48:58 PM 41.4194 -75.8419 350° North 269 310 9,800 -600 Descending New York Center
Thu 04:49:58 PM 41.4961 -75.8506 355° North 264 304 8,800 -900 Descending New York Center
Thu 04:50:58 PM 41.5683 -75.8672 350° North 269 310 8,000 -350 Descending New York Center
Thu 04:51:58 PM 41.6386 -75.8808 352° North 270 311 8,100 50 Climbing New York Center
Thu 04:52:58 PM 41.7025 -75.8942 351° North 254 292 8,100 -200 Level New York Center
Thu 04:53:58 PM 41.7767 -75.9108 350° North 254 292 7,700 -700 Descending New York Center
Thu 04:54:58 PM 41.8489 -75.9275 350° North 259 298 6,700 -1,000 Descending New York Center
Thu 04:55:58 PM 41.9203 -75.9583 342° North 259 298 5,700 -850 Descending New York Center
Thu 04:56:58 PM 41.9792 -75.9936 336° Northwest 259 298 5,000 -350 Descending New York Center
Thu 04:57:58 PM 42.0403 -76.0236 340° North 259 298 5,000  Level New York Center
Thu 04:58:58 PM 42.1094 -76.0597 339° North 248 285 5,000  Level New York Center
Thu 04:59:58 PM 42.1708 -76.0869 342° North 241 277 5,000  Level New York Center
Thu 05:00:58 PM 42.2339 -76.1172 340° North 241 277 5,000 -600 Level New York Center
Thu 05:01:58 PM 42.2969 -76.1506 339° North 241 277 3,800 -850 Descending New York Center
Thu 05:02:58 PM 42.3550 -76.1581 355° North 229 264 3,300 -250 Descending New York Center
Thu 05:03:58 PM 42.3469 -76.1014 101° East 87 100 3,300  Level New York Center
Thu 05:04:58 PM 42.3089 -76.0731 151° Southeast 75 86 3,300 -100 Level New York Center
Thu 05:05:58 PM 42.2789 -76.0425 143° Southeast 113 130 3,100 -400 Descending New York Center
Thu 05:06:58 PM 42.2528 -76.0208 148° Southeast 125 144 2,500 -550 Descending New York Center
Thu 05:07:58 PM 42.2311 -75.9967 140° Southeast 114 131 2,000 -250 Descending New York Center
Thu 05:08:58 PM 42.2069 -75.9781 150° Southeast 114 131 2,000  Level New York Center

Login

Don't have an account? Register now (free) for customized features, flight alerts, and more!